createdAt,value
2023-05-09T00:00:23.130Z,67.75
2023-05-09T00:01:23.124Z,67.24
2023-05-09T00:02:23.186Z,67.24
2023-05-09T00:03:23.123Z,67.34
2023-05-09T00:04:23.115Z,67.24
2023-05-09T00:05:23.101Z,67.34
2023-05-09T00:06:23.097Z,67.65
2023-05-09T00:07:23.067Z,66.94
2023-05-09T00:08:23.046Z,67.03
2023-05-09T00:09:23.107Z,66.83
2023-05-09T00:10:22.998Z,66.23
2023-05-09T00:11:23.015Z,66.13
2023-05-09T00:12:23.005Z,66.23
2023-05-09T00:13:23.066Z,66.33
2023-05-09T00:14:22.994Z,66.13
2023-05-09T00:15:22.944Z,66.33
2023-05-09T00:16:23.311Z,65.72
2023-05-09T00:17:22.992Z,66.23
2023-05-09T00:18:22.935Z,66.53
2023-05-09T00:19:22.927Z,66.53
2023-05-09T00:20:22.924Z,66.33
2023-05-09T00:21:22.872Z,66.94
2023-05-09T00:22:22.878Z,66.74
2023-05-09T00:23:22.933Z,67.03
2023-05-09T00:24:22.858Z,67.47
2023-05-09T00:25:22.872Z,68.29
2023-05-09T00:26:22.862Z,68.19
2023-05-09T00:27:22.833Z,68.08
2023-05-09T00:28:22.793Z,68.29
2023-05-09T00:29:22.817Z,69.20
2023-05-09T00:30:22.824Z,69.40
2023-05-09T00:31:22.815Z,68.08
2023-05-09T00:32:22.807Z,68.79
2023-05-09T00:33:22.753Z,69.10
2023-05-09T00:34:22.761Z,67.98
2023-05-09T00:35:22.785Z,67.78
2023-05-09T00:36:22.733Z,67.38
2023-05-09T00:37:22.758Z,66.97
2023-05-09T00:38:22.763Z,66.97
2023-05-09T00:39:22.728Z,66.86
2023-05-09T00:40:22.754Z,66.86
2023-05-09T00:41:22.687Z,66.66
2023-05-09T00:42:22.705Z,67.47
2023-05-09T00:43:22.641Z,66.56
2023-05-09T00:44:22.626Z,66.36
2023-05-09T00:45:22.672Z,66.46
2023-05-09T00:46:22.626Z,66.66
2023-05-09T00:47:22.785Z,66.46
2023-05-09T00:48:22.611Z,66.97
2023-05-09T00:49:22.633Z,68.08
2023-05-09T00:50:22.571Z,67.98
2023-05-09T00:51:22.561Z,67.07
2023-05-09T00:52:22.520Z,67.38
2023-05-09T00:53:22.533Z,67.58
2023-05-09T00:54:22.514Z,68.08
2023-05-09T00:55:22.530Z,67.58
2023-05-09T00:56:22.504Z,68.12
2023-05-09T00:57:22.536Z,68.62
2023-05-09T00:58:22.485Z,68.32
2023-05-09T00:59:22.486Z,68.62
2023-05-09T01:00:22.489Z,69.13
2023-05-09T01:01:22.616Z,69.54
2023-05-09T01:02:22.498Z,69.98
2023-05-09T01:03:22.510Z,69.47
2023-05-09T01:04:22.404Z,69.67
2023-05-09T01:05:22.389Z,68.86
2023-05-09T01:06:22.368Z,69.87
2023-05-09T01:07:22.377Z,69.98
2023-05-09T01:08:22.347Z,70.79
2023-05-09T01:09:22.391Z,70.21
2023-05-09T01:10:22.339Z,71.64
2023-05-09T01:11:22.341Z,69.40
2023-05-09T01:12:22.323Z,69.40
2023-05-09T01:13:22.408Z,69.40
2023-05-09T01:14:22.317Z,68.99
2023-05-09T01:15:22.296Z,69.30
2023-05-09T01:16:22.381Z,69.50
2023-05-09T01:17:22.295Z,69.33
2023-05-09T01:18:22.350Z,69.13
2023-05-09T01:19:22.286Z,69.13
2023-05-09T01:20:22.250Z,69.23
2023-05-09T01:21:22.204Z,69.53
2023-05-09T01:22:22.209Z,68.72
2023-05-09T01:23:22.245Z,69.64
2023-05-09T01:24:22.276Z,69.64
2023-05-09T01:25:22.229Z,69.84
2023-05-09T01:26:22.192Z,69.84
2023-05-09T01:27:22.157Z,69.74
2023-05-09T01:28:22.161Z,69.84
2023-05-09T01:29:22.139Z,69.64
2023-05-09T01:30:22.108Z,70.14
2023-05-09T01:31:22.139Z,70.55
2023-05-09T01:32:22.162Z,70.86
2023-05-09T01:33:22.086Z,70.45
2023-05-09T01:34:22.125Z,70.75
2023-05-09T01:35:22.083Z,71.57
2023-05-09T01:36:22.086Z,70.96
2023-05-09T01:37:22.030Z,70.65
2023-05-09T01:38:22.096Z,71.50
2023-05-09T01:39:22.023Z,71.50
2023-05-09T01:40:22.031Z,71.19
2023-05-09T01:41:22.000Z,70.99
2023-05-09T01:42:21.996Z,71.19
2023-05-09T01:43:21.978Z,72.21
2023-05-09T01:44:21.977Z,73.23
2023-05-09T01:45:21.957Z,73.02
2023-05-09T01:46:21.989Z,72.25
2023-05-09T01:47:21.952Z,72.14
2023-05-09T01:48:21.961Z,72.34
2023-05-09T01:49:21.960Z,72.75
2023-05-09T01:50:21.969Z,72.55
2023-05-09T01:51:21.917Z,72.55
2023-05-09T01:52:21.899Z,73.36
2023-05-09T01:53:21.869Z,73.57
2023-05-09T01:54:21.886Z,73.26
2023-05-09T01:55:21.863Z,72.96
2023-05-09T01:56:21.880Z,72.89
2023-05-09T01:57:21.896Z,72.99
2023-05-09T01:58:21.809Z,74.01
2023-05-09T01:59:21.811Z,74.11
2023-05-09T02:00:21.855Z,73.19
2023-05-09T02:01:21.838Z,73.80
2023-05-09T02:03:25.238Z,74.41
2023-05-09T02:04:25.139Z,75.02
2023-05-09T02:05:25.090Z,75.33
2023-05-09T02:06:25.099Z,75.67
2023-05-09T02:07:25.076Z,75.98
2023-05-09T02:08:25.080Z,76.39
2023-05-09T02:09:25.096Z,76.79
2023-05-09T02:10:25.074Z,76.90
2023-05-09T02:11:25.025Z,75.98
2023-05-09T02:12:25.071Z,75.71
2023-05-09T02:13:25.181Z,77.44
2023-05-09T02:14:24.998Z,75.92
2023-05-09T02:15:25.019Z,75.81
2023-05-09T02:16:25.041Z,76.49
2023-05-09T02:17:24.978Z,76.32
2023-05-09T02:18:25.039Z,76.42
2023-05-09T02:19:24.960Z,77.03
2023-05-09T02:20:24.944Z,77.64
2023-05-09T02:21:25.621Z,77.95
2023-05-09T02:22:24.925Z,78.36
2023-05-09T02:23:24.911Z,78.26
2023-05-09T02:24:24.904Z,78.30
2023-05-09T02:25:24.908Z,78.70
2023-05-09T02:26:24.884Z,78.80
2023-05-09T02:27:24.876Z,79.00
2023-05-09T02:28:24.862Z,79.41
2023-05-09T02:29:24.848Z,79.41
2023-05-09T02:30:24.840Z,79.82
2023-05-09T02:31:24.812Z,80.07
2023-05-09T02:32:24.863Z,80.27
2023-05-09T02:33:24.794Z,80.78
2023-05-09T02:34:24.793Z,80.68
2023-05-09T02:35:24.765Z,80.98
2023-05-09T02:36:24.785Z,81.39
2023-05-09T02:37:24.761Z,81.39
2023-05-09T02:38:24.756Z,81.59
2023-05-09T02:39:24.732Z,81.63
2023-05-09T02:40:24.721Z,81.84
2023-05-09T02:41:24.735Z,82.04
2023-05-09T02:42:24.707Z,82.35
2023-05-09T02:43:24.696Z,82.45
2023-05-09T02:44:24.712Z,82.65
2023-05-09T02:45:24.682Z,82.75
2023-05-09T02:46:24.717Z,82.75
2023-05-09T02:47:24.668Z,82.35
2023-05-09T02:48:24.689Z,82.45
2023-05-09T02:49:32.103Z,83.06
2023-05-09T02:50:25.618Z,83.16
2023-05-09T02:51:24.633Z,83.26
2023-05-09T02:52:24.618Z,83.16
2023-05-09T02:53:24.567Z,83.26
2023-05-09T02:54:24.615Z,83.47
2023-05-09T02:55:24.588Z,83.67
2023-05-09T02:56:24.556Z,83.47
2023-05-09T02:57:24.526Z,83.37
2023-05-09T02:58:24.544Z,82.89
2023-05-09T02:59:24.500Z,83.40
2023-05-09T03:00:24.488Z,83.40
2023-05-09T03:01:24.541Z,83.71
2023-05-09T03:02:24.588Z,83.61
2023-05-09T03:03:24.564Z,83.71
2023-05-09T03:04:24.504Z,84.22
2023-05-09T03:05:24.471Z,84.42
2023-05-09T03:06:24.455Z,84.74
2023-05-09T03:07:24.444Z,84.94
2023-05-09T03:08:24.435Z,84.98
2023-05-09T03:09:24.402Z,85.08
2023-05-09T03:10:24.403Z,84.98
2023-05-09T03:11:24.386Z,85.18
2023-05-09T03:12:24.416Z,84.98
2023-05-09T03:13:24.389Z,84.88
2023-05-09T03:14:24.393Z,84.88
2023-05-09T03:15:24.357Z,84.98
2023-05-09T03:16:24.477Z,85.18
2023-05-09T03:17:24.465Z,84.98
2023-05-09T03:18:24.321Z,85.18
2023-05-09T03:19:24.294Z,85.38
2023-05-09T03:20:24.470Z,85.49
2023-05-09T03:21:24.280Z,85.18
2023-05-09T03:22:24.291Z,84.98
2023-05-09T03:23:24.264Z,85.28
2023-05-09T03:24:24.272Z,85.38
2023-05-09T03:25:24.247Z,85.49
2023-05-09T03:26:24.269Z,85.18
2023-05-09T03:27:24.215Z,85.08
2023-05-09T03:28:24.224Z,85.22
2023-05-09T03:29:24.211Z,85.42
2023-05-09T03:30:24.212Z,85.63
2023-05-09T03:31:24.227Z,85.22
2023-05-09T03:32:24.273Z,85.83
2023-05-09T03:33:24.150Z,85.63
2023-05-09T03:34:24.185Z,85.42
2023-05-09T03:35:24.152Z,85.63
2023-05-09T03:36:24.137Z,86.14
2023-05-09T03:37:26.253Z,86.14
2023-05-09T03:38:24.119Z,86.44
2023-05-09T03:39:24.098Z,86.44
2023-05-09T03:40:24.104Z,86.49
2023-05-09T03:41:24.062Z,86.59
2023-05-09T03:42:24.071Z,87.00
2023-05-09T03:43:24.031Z,87.00
2023-05-09T03:44:24.109Z,86.49
2023-05-09T03:45:24.024Z,86.59
2023-05-09T03:46:24.131Z,86.59
2023-05-09T03:47:24.002Z,85.97
2023-05-09T03:48:24.026Z,86.18
2023-05-09T03:49:23.973Z,85.67
2023-05-09T03:50:23.969Z,85.77
2023-05-09T03:51:24.005Z,85.36
2023-05-09T03:52:23.957Z,85.57
2023-05-09T03:53:23.953Z,85.67
2023-05-09T03:54:23.966Z,85.57
2023-05-09T03:55:23.915Z,85.67
2023-05-09T03:56:23.903Z,85.67
2023-05-09T03:57:23.900Z,85.47
2023-05-09T03:58:23.904Z,85.77
2023-05-09T03:59:23.865Z,86.18
2023-05-09T04:00:23.865Z,86.29
2023-05-09T04:01:23.870Z,86.14
2023-05-09T04:02:24.005Z,86.14
2023-05-09T04:03:23.866Z,85.73
2023-05-09T04:04:23.835Z,85.32
2023-05-09T04:05:23.822Z,84.91
2023-05-09T04:06:23.820Z,84.81
2023-05-09T04:07:23.793Z,84.61
2023-05-09T04:08:23.791Z,84.71
2023-05-09T04:09:23.771Z,84.61
2023-05-09T04:10:23.783Z,84.61
2023-05-09T04:11:23.749Z,84.61
2023-05-09T04:12:23.757Z,84.50
2023-05-09T04:13:23.779Z,84.71
2023-05-09T04:14:23.728Z,84.61
2023-05-09T04:15:23.718Z,84.50
2023-05-09T04:16:23.756Z,84.20
2023-05-09T04:17:23.713Z,83.79
2023-05-09T04:18:23.705Z,83.59
2023-05-09T04:19:23.661Z,83.59
2023-05-09T04:20:23.691Z,83.89
2023-05-09T04:21:23.631Z,83.89
2023-05-09T04:22:23.725Z,84.50
2023-05-09T04:23:23.617Z,84.36
2023-05-09T04:24:23.619Z,84.41
2023-05-09T04:25:23.606Z,84.57
2023-05-09T04:26:23.590Z,83.95
2023-05-09T04:27:23.568Z,84.16
2023-05-09T04:28:23.565Z,83.95
2023-05-09T04:29:23.548Z,84.36
2023-05-09T04:30:23.592Z,84.16
2023-05-09T04:31:23.595Z,83.85
2023-05-09T04:32:23.556Z,83.75
2023-05-09T04:33:23.506Z,83.54
2023-05-09T04:34:23.508Z,83.85
2023-05-09T04:35:23.574Z,83.34
2023-05-09T04:36:23.477Z,83.24
2023-05-09T04:37:23.491Z,82.93
2023-05-09T04:38:23.459Z,83.00
2023-05-09T04:39:23.477Z,83.20
2023-05-09T04:40:25.438Z,83.20
2023-05-09T04:41:23.421Z,83.00
2023-05-09T04:42:23.412Z,82.89
2023-05-09T04:43:23.403Z,82.59
2023-05-09T04:44:23.441Z,82.35
2023-05-09T04:45:23.426Z,82.55
2023-05-09T04:46:25.651Z,82.55
2023-05-09T04:47:23.359Z,82.55
2023-05-09T04:48:23.356Z,82.55
2023-05-09T04:49:23.344Z,82.86
2023-05-09T04:50:23.314Z,82.51
2023-05-09T04:51:23.315Z,82.41
2023-05-09T04:52:23.350Z,82.31
2023-05-09T04:53:23.388Z,82.51
2023-05-09T04:54:23.272Z,82.21
2023-05-09T04:55:23.274Z,81.86
2023-05-09T04:56:23.271Z,81.76
2023-05-09T04:57:23.265Z,81.45
2023-05-09T04:58:23.233Z,81.35
2023-05-09T04:59:23.249Z,81.25
2023-05-09T05:00:23.223Z,81.21
2023-05-09T05:01:23.255Z,81.01
2023-05-09T05:02:23.310Z,80.91
2023-05-09T05:03:23.194Z,80.60
2023-05-09T05:04:23.180Z,80.70
2023-05-09T05:05:25.263Z,80.36
2023-05-09T05:06:23.148Z,80.66
2023-05-09T05:07:23.148Z,80.36
2023-05-09T05:08:23.127Z,79.95
2023-05-09T05:09:25.326Z,80.05
2023-05-09T05:10:23.108Z,80.36
2023-05-09T05:11:23.113Z,80.11
2023-05-09T05:12:23.094Z,79.81
2023-05-09T05:13:23.120Z,80.11
2023-05-09T05:14:23.060Z,79.50
2023-05-09T05:15:23.063Z,79.68
2023-05-09T05:16:23.086Z,79.47
2023-05-09T05:17:23.144Z,79.57
2023-05-09T05:18:23.047Z,79.88
2023-05-09T05:19:23.022Z,79.88
2023-05-09T05:20:23.006Z,79.84
2023-05-09T05:21:23.007Z,79.63
2023-05-09T05:22:22.994Z,79.43
2023-05-09T05:23:23.005Z,79.23
2023-05-09T05:24:23.046Z,78.92
2023-05-09T05:25:22.963Z,78.48
2023-05-09T05:26:22.935Z,78.58
2023-05-09T05:27:22.954Z,78.58
2023-05-09T05:28:22.916Z,78.68
2023-05-09T05:29:22.952Z,78.95
2023-05-09T05:30:22.904Z,78.55
2023-05-09T05:31:22.989Z,78.55
2023-05-09T05:32:22.880Z,78.64
2023-05-09T05:33:22.872Z,78.91
2023-05-09T05:34:22.889Z,77.39
2023-05-09T05:35:22.918Z,77.19
2023-05-09T05:36:22.841Z,76.54
2023-05-09T05:37:22.846Z,77.36
2023-05-09T05:38:22.802Z,77.56
2023-05-09T05:39:22.810Z,77.42
2023-05-09T05:40:22.790Z,76.81
2023-05-09T05:41:22.816Z,76.51
2023-05-09T05:42:22.781Z,77.59
2023-05-09T05:43:22.791Z,76.57
2023-05-09T05:44:22.747Z,76.06
2023-05-09T05:45:22.765Z,75.52
2023-05-09T05:46:22.841Z,76.13
2023-05-09T05:47:22.757Z,75.82
2023-05-09T05:48:22.731Z,75.08
2023-05-09T05:49:22.693Z,74.68
2023-05-09T05:50:22.700Z,74.68
2023-05-09T05:51:22.671Z,74.37
2023-05-09T05:52:22.686Z,73.97
2023-05-09T05:53:22.663Z,73.83
2023-05-09T05:54:22.616Z,74.33
2023-05-09T05:55:22.675Z,73.93
2023-05-09T05:56:22.624Z,73.32
2023-05-09T05:57:22.633Z,72.81
2023-05-09T05:58:22.615Z,72.17
2023-05-09T05:59:22.613Z,71.77
2023-05-09T06:00:22.553Z,71.97
2023-05-09T06:01:22.557Z,71.67
2023-05-09T06:02:22.589Z,72.08
2023-05-09T06:03:22.685Z,72.28
2023-05-09T06:04:22.595Z,71.47
2023-05-09T06:05:22.511Z,72.08
2023-05-09T06:06:22.484Z,72.28
2023-05-09T06:07:22.516Z,72.24
2023-05-09T06:08:22.472Z,71.33
2023-05-09T06:09:22.474Z,71.23
2023-05-09T06:10:22.440Z,71.53
2023-05-09T06:11:22.481Z,71.09
2023-05-09T06:12:22.436Z,71.40
2023-05-09T06:13:22.575Z,71.17
2023-05-09T06:14:22.444Z,71.00
2023-05-09T06:15:22.412Z,71.06
2023-05-09T06:16:22.411Z,71.37
2023-05-09T06:17:22.379Z,71.67
2023-05-09T06:18:22.363Z,71.57
2023-05-09T06:19:22.365Z,71.97
2023-05-09T06:20:22.368Z,71.57
2023-05-09T06:21:22.339Z,71.44
2023-05-09T06:22:22.327Z,71.73
2023-05-09T06:23:22.345Z,71.84
2023-05-09T06:24:34.464Z,71.73
2023-05-09T06:25:23.319Z,71.94
2023-05-09T06:26:22.304Z,71.33
2023-05-09T06:27:22.313Z,70.93
2023-05-09T06:28:22.257Z,71.13
2023-05-09T06:29:22.237Z,71.40
2023-05-09T06:30:26.257Z,71.10
2023-05-09T06:31:24.139Z,70.59
2023-05-09T06:32:22.300Z,71.00
2023-05-09T06:33:22.214Z,71.00
2023-05-09T06:34:22.204Z,70.79
2023-05-09T06:35:22.290Z,71.00
2023-05-09T06:36:22.165Z,71.10
2023-05-09T06:37:22.162Z,71.47
2023-05-09T06:38:22.171Z,70.36
2023-05-09T06:39:22.157Z,70.86
2023-05-09T06:40:22.130Z,71.06
2023-05-09T06:41:22.139Z,70.42
2023-05-09T06:42:22.115Z,70.73
2023-05-09T06:43:22.111Z,70.73
2023-05-09T06:44:22.081Z,70.53
2023-05-09T06:45:22.113Z,70.32
2023-05-09T06:46:22.184Z,70.42
2023-05-09T06:47:22.065Z,70.32
2023-05-09T06:48:22.036Z,70.62
2023-05-09T06:49:22.047Z,70.73
2023-05-09T06:50:22.016Z,70.09
2023-05-09T06:51:22.041Z,70.19
2023-05-09T06:52:22.009Z,69.59
2023-05-09T06:53:22.041Z,69.35
2023-05-09T06:54:21.972Z,69.35
2023-05-09T06:55:21.978Z,69.65
2023-05-09T06:56:22.122Z,69.85
2023-05-09T06:57:21.954Z,69.15
2023-05-09T06:58:21.940Z,69.55
2023-05-09T06:59:21.949Z,69.75
2023-05-09T07:00:21.927Z,69.65
2023-05-09T07:01:21.977Z,69.95
2023-05-09T07:02:21.908Z,70.15
2023-05-09T07:03:21.903Z,69.25
2023-05-09T07:04:21.885Z,68.91
2023-05-09T07:05:21.959Z,68.61
2023-05-09T07:06:21.870Z,68.81
2023-05-09T07:07:21.853Z,69.12
2023-05-09T07:08:21.824Z,68.51
2023-05-09T07:09:21.844Z,68.31
2023-05-09T07:10:21.796Z,68.61
2023-05-09T07:11:21.824Z,69.32
2023-05-09T07:12:21.794Z,68.58
2023-05-09T07:13:21.827Z,67.68
2023-05-09T07:14:21.776Z,67.68
2023-05-09T07:15:36.796Z,67.54
2023-05-09T07:16:22.833Z,67.24
2023-05-09T07:17:23.878Z,66.53
2023-05-09T07:18:21.723Z,66.94
2023-05-09T07:19:23.795Z,66.71
2023-05-09T07:20:21.773Z,66.17
2023-05-09T07:21:21.768Z,65.97
2023-05-09T07:22:21.791Z,65.73
2023-05-09T07:23:21.735Z,65.03
2023-05-09T07:24:21.739Z,64.60
2023-05-09T07:25:21.664Z,63.36
2023-05-09T07:26:21.644Z,63.06
2023-05-09T07:27:21.807Z,62.70
2023-05-09T07:28:21.625Z,61.36
2023-05-09T07:29:21.652Z,59.64
2023-05-09T07:30:21.634Z,59.44
2023-05-09T07:31:21.728Z,60.01
2023-05-09T07:32:21.674Z,59.70
2023-05-09T07:33:21.624Z,59.91
2023-05-09T07:34:21.546Z,59.08
2023-05-09T07:35:21.571Z,59.00
2023-05-09T07:36:22.717Z,59.94
2023-05-09T07:37:21.539Z,60.33
2023-05-09T07:38:21.517Z,60.16
2023-05-09T07:39:21.527Z,60.27
2023-05-09T07:40:21.507Z,60.86
2023-05-09T07:41:21.585Z,61.30
2023-05-09T07:42:21.582Z,60.89
2023-05-09T07:43:21.466Z,61.93
2023-05-09T07:44:21.443Z,62.73
2023-05-09T07:45:23.771Z,62.73
2023-05-09T07:46:21.511Z,61.63
2023-05-09T07:47:21.436Z,62.76
2023-05-09T07:48:21.392Z,63.56
2023-05-09T07:49:21.395Z,62.86
2023-05-09T07:50:21.383Z,62.96
2023-05-09T07:51:21.383Z,63.36
2023-05-09T07:52:21.373Z,63.79
2023-05-09T07:53:21.345Z,64.10
2023-05-09T07:54:21.339Z,63.26
2023-05-09T07:55:21.325Z,63.17
2023-05-09T07:56:21.327Z,63.59
2023-05-09T07:57:21.334Z,63.49
2023-05-09T07:58:21.376Z,63.39
2023-05-09T07:59:21.287Z,63.93
2023-05-09T08:00:21.282Z,64.46
2023-05-09T08:01:21.277Z,64.76
2023-05-09T08:02:22.021Z,64.66
2023-05-09T08:03:28.301Z,65.70
2023-05-09T08:04:21.266Z,65.09
2023-05-09T08:05:22.932Z,65.06
2023-05-09T08:06:21.215Z,65.16
2023-05-09T08:07:21.227Z,64.66
2023-05-09T08:08:21.183Z,64.56
2023-05-09T08:09:21.170Z,64.56
2023-05-09T08:10:21.160Z,64.69
2023-05-09T08:11:21.164Z,64.89
2023-05-09T08:12:21.125Z,65.50
2023-05-09T08:13:21.239Z,66.20
2023-05-09T08:14:21.118Z,66.40
2023-05-09T08:15:21.110Z,66.60
2023-05-09T08:16:21.168Z,65.59
2023-05-09T08:17:21.119Z,65.59
2023-05-09T08:18:21.091Z,65.19
2023-05-09T08:19:21.104Z,65.50
2023-05-09T08:20:21.054Z,65.19
2023-05-09T08:21:22.264Z,65.56
2023-05-09T08:22:21.035Z,65.77
2023-05-09T08:23:21.043Z,64.53
2023-05-09T08:24:21.008Z,64.63
2023-05-09T08:25:21.028Z,63.70
2023-05-09T08:26:20.978Z,63.67
2023-05-09T08:27:20.985Z,62.73
2023-05-09T08:28:20.956Z,61.80
2023-05-09T08:29:21.098Z,62.10
2023-05-09T08:30:20.967Z,61.19
2023-05-09T08:31:20.973Z,61.17
2023-05-09T08:32:20.976Z,61.17
2023-05-09T08:33:20.921Z,60.36
2023-05-09T08:34:20.920Z,60.66
2023-05-09T08:35:20.892Z,61.00
2023-05-09T08:36:20.894Z,62.10
2023-05-09T08:37:20.883Z,61.17
2023-05-09T08:38:20.872Z,61.36
2023-05-09T08:39:20.887Z,60.86
2023-05-09T08:40:20.843Z,60.33
2023-05-09T08:41:20.924Z,61.34
2023-05-09T08:42:20.828Z,61.21
2023-05-09T08:43:20.819Z,60.91
2023-05-09T08:44:20.793Z,59.81
2023-05-09T08:45:20.810Z,61.21
2023-05-09T08:46:20.804Z,61.21
2023-05-09T08:47:20.791Z,60.71
2023-05-09T08:48:20.751Z,61.21
2023-05-09T08:49:20.767Z,60.94
2023-05-09T08:50:20.760Z,61.94
2023-05-09T08:51:20.716Z,62.44
2023-05-09T08:52:20.708Z,62.94
2023-05-09T08:53:20.693Z,63.14
2023-05-09T08:54:22.677Z,62.74
2023-05-09T08:55:20.675Z,61.04
2023-05-09T08:56:20.674Z,62.04
2023-05-09T08:57:20.655Z,62.17
2023-05-09T08:58:20.655Z,62.40
2023-05-09T08:59:20.633Z,63.81
2023-05-09T09:00:21.260Z,63.50
2023-05-09T09:01:20.702Z,63.10
2023-05-09T09:02:20.609Z,62.40
2023-05-09T09:03:20.592Z,62.87
2023-05-09T09:04:20.637Z,62.57
2023-05-09T09:05:39.902Z,62.64
2023-05-09T09:06:21.562Z,62.11
2023-05-09T09:07:20.537Z,61.48
2023-05-09T09:08:20.533Z,60.58
2023-05-09T09:09:20.511Z,60.25
2023-05-09T09:10:20.568Z,60.65
2023-05-09T09:11:20.504Z,60.18
2023-05-09T09:12:20.500Z,60.58
2023-05-09T09:13:20.550Z,61.58
2023-05-09T09:14:20.473Z,61.15
2023-05-09T09:15:20.469Z,59.62
2023-05-09T09:16:20.524Z,60.02
2023-05-09T09:17:20.453Z,60.55
2023-05-09T09:18:20.435Z,60.35
2023-05-09T09:19:20.418Z,60.68
2023-05-09T09:20:20.492Z,60.98
2023-05-09T09:21:20.414Z,60.35
2023-05-09T09:22:20.397Z,60.25
2023-05-09T09:23:20.362Z,60.02
2023-05-09T09:24:20.385Z,58.72
2023-05-09T09:25:20.340Z,59.79
2023-05-09T09:26:20.347Z,59.89
2023-05-09T09:27:20.352Z,59.47
2023-05-09T09:28:20.332Z,59.83
2023-05-09T09:29:20.299Z,59.01
2023-05-09T09:30:20.411Z,58.51
2023-05-09T09:31:20.466Z,58.61
2023-05-09T09:32:20.326Z,58.31
2023-05-09T09:33:20.275Z,58.51
2023-05-09T09:34:20.286Z,57.41
2023-05-09T09:35:20.273Z,57.81
2023-05-09T09:36:20.231Z,58.84
2023-05-09T09:37:20.221Z,57.93
2023-05-09T09:38:20.232Z,58.86
2023-05-09T09:39:20.195Z,58.80
2023-05-09T09:40:20.266Z,59.79
2023-05-09T09:41:20.181Z,60.59
2023-05-09T09:42:20.194Z,59.89
2023-05-09T09:43:20.169Z,60.10
2023-05-09T09:44:20.179Z,60.42
2023-05-09T09:45:20.277Z,59.82
2023-05-09T09:46:20.214Z,60.82
2023-05-09T09:47:20.100Z,60.92
2023-05-09T09:48:20.101Z,60.92
2023-05-09T09:49:20.068Z,61.05
2023-05-09T09:50:20.235Z,61.65
2023-05-09T09:51:20.079Z,61.55
2023-05-09T09:52:20.044Z,61.35
2023-05-09T09:53:20.081Z,60.85
2023-05-09T09:54:20.070Z,61.45
2023-05-09T09:55:20.033Z,61.95
2023-05-09T09:56:20.021Z,62.55
2023-05-09T09:57:20.009Z,62.38
2023-05-09T09:58:20.008Z,62.58
2023-05-09T09:59:20.041Z,62.58
2023-05-09T10:00:19.972Z,62.58
2023-05-09T10:01:19.986Z,62.38
2023-05-09T10:02:20.029Z,62.58
2023-05-09T10:03:20.064Z,62.98
2023-05-09T10:04:19.946Z,62.58
2023-05-09T10:05:19.919Z,62.28
2023-05-09T10:06:19.950Z,61.71
2023-05-09T10:07:19.926Z,62.64
2023-05-09T10:08:19.917Z,63.14
2023-05-09T10:09:19.901Z,63.45
2023-05-09T10:10:19.936Z,63.54
2023-05-09T10:11:19.916Z,63.24
2023-05-09T10:12:19.917Z,63.45
2023-05-09T10:13:19.893Z,63.84
2023-05-09T10:14:19.894Z,63.54
2023-05-09T10:15:19.856Z,64.12
2023-05-09T10:16:25.930Z,64.42
2023-05-09T10:17:20.910Z,63.31
2023-05-09T10:18:20.190Z,63.42
2023-05-09T10:19:19.782Z,63.71
2023-05-09T10:20:19.775Z,62.94
2023-05-09T10:21:19.756Z,63.04
2023-05-09T10:22:19.770Z,63.28
2023-05-09T10:23:19.752Z,63.78
2023-05-09T10:24:19.722Z,63.98
2023-05-09T10:25:19.799Z,64.54
2023-05-09T10:26:19.711Z,63.95
2023-05-09T10:27:19.694Z,63.95
2023-05-09T10:28:19.689Z,63.42
2023-05-09T10:29:19.672Z,62.81
2023-05-09T10:30:19.669Z,62.11
2023-05-09T10:31:19.675Z,62.31
2023-05-09T10:32:19.647Z,62.92
2023-05-09T10:33:19.641Z,63.08
2023-05-09T10:34:19.626Z,62.88
2023-05-09T10:35:19.657Z,62.85
2023-05-09T10:36:19.603Z,61.05
2023-05-09T10:37:20.620Z,61.55
2023-05-09T10:38:19.589Z,61.85
2023-05-09T10:39:19.561Z,61.72
2023-05-09T10:40:19.756Z,61.02
2023-05-09T10:41:19.543Z,59.99
2023-05-09T10:42:19.538Z,59.62
2023-05-09T10:43:19.527Z,60.72
2023-05-09T10:44:19.521Z,60.59
2023-05-09T10:45:19.521Z,59.39
2023-05-09T10:46:19.539Z,59.49
2023-05-09T10:47:19.567Z,59.89
2023-05-09T10:48:19.518Z,59.27
2023-05-09T10:49:19.465Z,59.47
2023-05-09T10:50:19.461Z,59.23
2023-05-09T10:51:19.437Z,58.84
2023-05-09T10:52:19.426Z,59.14
2023-05-09T10:53:19.427Z,58.21
2023-05-09T10:54:19.408Z,58.21
2023-05-09T10:55:19.398Z,58.48
2023-05-09T10:56:19.389Z,57.98
2023-05-09T10:57:19.374Z,57.91
2023-05-09T10:58:19.356Z,58.54
2023-05-09T10:59:19.338Z,58.34
2023-05-09T11:00:19.343Z,58.64
2023-05-09T11:01:19.357Z,58.54
2023-05-09T11:02:19.368Z,58.04
2023-05-09T11:03:19.440Z,58.44
2023-05-09T11:04:19.344Z,58.04
2023-05-09T11:05:19.320Z,57.84
2023-05-09T11:06:19.267Z,57.97
2023-05-09T11:07:19.280Z,58.14
2023-05-09T11:08:19.262Z,57.84
2023-05-09T11:09:19.244Z,58.01
2023-05-09T11:10:19.261Z,58.08
2023-05-09T11:11:19.209Z,57.06
2023-05-09T11:12:19.223Z,56.53
2023-05-09T11:13:19.290Z,56.13
2023-05-09T11:14:19.200Z,56.60
2023-05-09T11:15:19.176Z,56.18
2023-05-09T11:16:19.181Z,54.38
2023-05-09T11:17:19.157Z,54.79
2023-05-09T11:18:19.152Z,54.88
2023-05-09T11:19:19.119Z,55.31
2023-05-09T11:20:19.146Z,55.31
2023-05-09T11:21:19.101Z,54.49
2023-05-09T11:22:19.120Z,53.61
2023-05-09T11:23:19.119Z,53.74
2023-05-09T11:24:19.156Z,54.44
2023-05-09T11:25:19.110Z,54.46
2023-05-09T11:26:19.065Z,54.94
2023-05-09T11:27:19.048Z,54.14
2023-05-09T11:28:19.064Z,54.31
2023-05-09T11:29:19.051Z,54.21
2023-05-09T11:30:19.066Z,54.49
2023-05-09T11:31:19.162Z,53.49
2023-05-09T11:32:19.017Z,52.79
2023-05-09T11:33:18.996Z,52.99
2023-05-09T11:34:18.980Z,52.97
2023-05-09T11:35:19.163Z,52.37
2023-05-09T11:36:18.962Z,52.34
2023-05-09T11:37:18.928Z,52.22
2023-05-09T11:38:18.941Z,51.75
2023-05-09T11:39:18.938Z,51.70
2023-05-09T11:40:18.955Z,51.45
2023-05-09T11:41:18.888Z,50.23
2023-05-09T11:42:19.020Z,50.60
2023-05-09T11:43:18.928Z,49.09
2023-05-09T11:44:18.891Z,48.65
2023-05-09T11:45:18.881Z,50.03
2023-05-09T11:46:18.903Z,48.94
2023-05-09T11:47:18.840Z,49.68
2023-05-09T11:48:18.871Z,50.38
2023-05-09T11:49:18.820Z,50.28
2023-05-09T11:50:18.819Z,50.10
2023-05-09T11:51:18.807Z,50.60
2023-05-09T11:52:18.812Z,51.10
2023-05-09T11:53:18.811Z,50.80
2023-05-09T11:54:18.804Z,50.20
2023-05-09T11:55:19.370Z,50.82
2023-05-09T11:56:18.782Z,51.25
2023-05-09T11:57:18.760Z,51.95
2023-05-09T11:58:18.752Z,51.54
2023-05-09T11:59:18.725Z,51.62
2023-05-09T12:00:18.751Z,51.25
2023-05-09T12:01:18.715Z,51.54
2023-05-09T12:02:18.739Z,51.95
2023-05-09T12:03:18.851Z,51.89
2023-05-09T12:04:18.773Z,51.00
2023-05-09T12:05:18.740Z,51.60
2023-05-09T12:06:18.755Z,51.50
2023-05-09T12:07:18.646Z,52.56
2023-05-09T12:08:18.606Z,52.04
2023-05-09T12:09:18.602Z,50.26
2023-05-09T12:10:18.598Z,50.75
2023-05-09T12:11:18.579Z,50.75
2023-05-09T12:12:18.573Z,50.16
2023-05-09T12:13:18.574Z,50.13
2023-05-09T12:14:18.559Z,49.44
2023-05-09T12:15:19.574Z,49.02
2023-05-09T12:16:18.601Z,48.99
2023-05-09T12:17:18.535Z,48.57
2023-05-09T12:18:18.511Z,49.54
2023-05-09T12:19:18.498Z,49.64
2023-05-09T12:20:18.506Z,47.52
2023-05-09T12:21:18.483Z,47.52
2023-05-09T12:22:18.488Z,47.81
2023-05-09T12:23:18.459Z,47.22
2023-05-09T12:24:18.452Z,46.92
2023-05-09T12:25:18.457Z,46.77
2023-05-09T12:26:18.432Z,47.28
2023-05-09T12:27:18.442Z,48.27
2023-05-09T12:28:18.425Z,47.98
2023-05-09T12:29:18.400Z,46.57
2023-05-09T12:30:18.389Z,47.21
2023-05-09T12:31:18.443Z,48.44
2023-05-09T12:32:18.377Z,49.26
2023-05-09T12:33:18.357Z,49.07
2023-05-09T12:34:18.347Z,49.49
2023-05-09T12:35:18.334Z,50.50
2023-05-09T12:36:18.338Z,50.43
2023-05-09T12:37:18.663Z,50.93
2023-05-09T12:38:18.299Z,51.22
2023-05-09T12:39:18.295Z,51.72
2023-05-09T12:40:18.299Z,52.02
2023-05-09T12:41:34.842Z,52.22
2023-05-09T12:42:19.271Z,52.51
2023-05-09T12:43:18.358Z,51.45
2023-05-09T12:44:18.254Z,51.67
2023-05-09T12:45:18.373Z,52.59
2023-05-09T12:46:18.268Z,52.99
2023-05-09T12:47:18.263Z,53.69
2023-05-09T12:48:18.235Z,54.19
2023-05-09T12:49:18.194Z,53.39
2023-05-09T12:50:18.180Z,53.78
2023-05-09T12:51:18.167Z,53.81
2023-05-09T12:52:18.182Z,54.34
2023-05-09T12:53:18.155Z,54.24